Time;durP1;ratioP1;P1;durP2;ratioP2;P2;SDS_P1;SDS_P2;PMS_P1;PMS_P2;Temp;Humidity;BMP_temperature;BMP_pressure;BME280_temperature;BME280_humidity;BME280_pressure;Samples;Min_cycle;Max_cycle;Signal;HPM_P1;HPM_P2
2021/08/05 00:01:20;;;;;;;2.80;2.20;;;20.40;99.90;;;;;;4995699;28;20580;-78
2021/08/05 00:03:47;;;;;;;1.92;1.80;;;20.40;99.90;;;;;;4995877;28;20209;-78
2021/08/05 00:06:13;;;;;;;2.30;2.10;;;20.40;99.90;;;;;;4995992;28;20221;-77
2021/08/05 00:08:40;;;;;;;3.03;2.13;;;20.40;99.90;;;;;;4995091;28;20194;-78
2021/08/05 00:11:07;;;;;;;3.65;2.25;;;20.40;99.90;;;;;;4994551;28;20221;-78
2021/08/05 00:13:35;;;;;;;2.28;2.08;;;20.30;99.90;;;;;;4995484;28;20201;-78
2021/08/05 00:16:02;;;;;;;3.65;1.80;;;20.40;99.90;;;;;;4995704;28;20197;-78
2021/08/05 00:18:28;;;;;;;2.15;1.95;;;20.40;99.90;;;;;;4995673;28;20205;-78
2021/08/05 00:20:55;;;;;;;2.50;2.00;;;20.40;99.90;;;;;;4995323;28;20584;-78
2021/08/05 00:23:22;;;;;;;2.15;1.92;;;20.40;99.90;;;;;;4995247;28;20279;-78
2021/08/05 00:25:48;;;;;;;5.95;2.38;;;20.30;99.90;;;;;;4995461;28;20252;-77
2021/08/05 00:28:15;;;;;;;2.13;2.03;;;20.30;99.90;;;;;;4994946;28;20605;-77
2021/08/05 00:30:43;;;;;;;1.95;1.75;;;20.30;99.90;;;;;;4995501;28;20205;-77
2021/08/05 00:33:10;;;;;;;2.10;1.88;;;20.30;99.90;;;;;;4992441;28;20193;-78
2021/08/05 00:35:36;;;;;;;2.50;2.30;;;20.30;99.90;;;;;;4990099;28;20193;-77
2021/08/05 00:38:03;;;;;;;2.45;2.25;;;20.30;99.90;;;;;;4990340;28;20197;-77
2021/08/05 00:40:30;;;;;;;2.30;2.10;;;20.30;99.90;;;;;;4993967;28;20600;-77
2021/08/05 00:42:56;;;;;;;2.60;2.40;;;20.30;99.90;;;;;;4994823;28;20198;-78
2021/08/05 00:45:23;;;;;;;1.90;1.80;;;20.30;99.90;;;;;;4994737;28;20656;-77
2021/08/05 00:47:51;;;;;;;1.95;1.85;;;20.20;99.90;;;;;;4994660;28;20228;-77
2021/08/05 00:50:18;;;;;;;2.47;2.22;;;20.20;99.90;;;;;;4994586;28;20197;-78
2021/08/05 00:52:46;;;;;;;2.00;1.90;;;20.20;99.90;;;;;;4994404;28;20202;-78
2021/08/05 00:55:13;;;;;;;2.20;2.00;;;20.20;99.90;;;;;;4993352;28;20208;-78
2021/08/05 00:57:39;;;;;;;2.35;1.98;;;20.20;99.90;;;;;;4994320;28;20287;-77
2021/08/05 01:00:08;;;;;;;1.77;1.67;;;20.20;99.90;;;;;;4994388;28;20260;-78
2021/08/05 01:02:39;;;;;;;1.73;1.63;;;20.20;99.90;;;;;;4993782;28;20329;-78
2021/08/05 01:05:09;;;;;;;2.42;2.17;;;20.10;99.90;;;;;;4994300;28;20271;-78
2021/08/05 01:07:40;;;;;;;2.20;1.70;;;20.20;99.90;;;;;;4994042;28;20229;-78
2021/08/05 01:10:12;;;;;;;2.30;1.98;;;20.10;99.90;;;;;;4993246;28;20193;-79
2021/08/05 01:12:43;;;;;;;2.10;1.95;;;20.10;99.90;;;;;;4993506;28;20248;-78
2021/08/05 01:15:14;;;;;;;2.40;2.20;;;20.10;99.90;;;;;;4994457;28;20543;-79
2021/08/05 01:17:46;;;;;;;2.20;2.00;;;20.10;99.90;;;;;;4994202;28;20178;-78
2021/08/05 01:20:18;;;;;;;2.78;2.00;;;20.00;99.90;;;;;;4991575;28;20197;-78
2021/08/05 01:22:48;;;;;;;2.10;1.90;;;20.00;99.90;;;;;;4993667;28;20201;-78
2021/08/05 01:25:27;;;;;;;2.22;2.03;;;20.00;99.90;;;;;;4993588;28;20197;-78
2021/08/05 01:27:55;;;;;;;2.45;2.25;;;19.90;99.90;;;;;;4990578;28;20503;-77
2021/08/05 01:30:23;;;;;;;2.40;2.20;;;19.90;99.90;;;;;;4994109;28;20220;-78
2021/08/05 01:32:50;;;;;;;2.50;2.30;;;19.90;99.90;;;;;;4993293;28;20591;-77
2021/08/05 01:35:17;;;;;;;2.90;2.70;;;19.90;99.90;;;;;;4993381;28;20201;-76
2021/08/05 01:37:45;;;;;;;4.00;2.05;;;19.90;99.90;;;;;;4993999;28;20204;-77
2021/08/05 01:40:13;;;;;;;2.30;2.10;;;19.90;99.90;;;;;;4993829;28;20507;-76
2021/08/05 01:42:40;;;;;;;1.85;1.75;;;19.90;99.90;;;;;;4991533;28;20205;-76
2021/08/05 01:45:10;;;;;;;2.03;1.83;;;19.90;99.90;;;;;;4993766;28;20263;-76
2021/08/05 01:47:40;;;;;;;2.33;2.13;;;19.80;99.90;;;;;;4993420;28;20228;-76
2021/08/05 01:50:08;;;;;;;2.28;2.05;;;19.90;99.90;;;;;;4991944;28;20198;-77
2021/08/05 01:52:36;;;;;;;2.50;2.30;;;19.80;99.90;;;;;;4993696;28;20202;-76
2021/08/05 01:55:04;;;;;;;2.15;1.95;;;19.80;99.90;;;;;;4992843;28;20193;-77
2021/08/05 01:57:32;;;;;;;2.42;2.22;;;19.80;99.90;;;;;;4993041;28;20525;-77
2021/08/05 01:59:58;;;;;;;3.30;2.30;;;19.80;99.90;;;;;;4992129;28;20714;-77
2021/08/05 02:02:28;;;;;;;2.75;2.22;;;19.80;99.90;;;;;;4990043;28;20259;-76
2021/08/05 02:05:02;;;;;;;2.15;1.95;;;19.80;99.90;;;;;;4991021;28;20197;-76
2021/08/05 02:07:32;;;;;;;2.00;1.80;;;19.80;99.90;;;;;;4992321;28;20264;-77
2021/08/05 02:10:02;;;;;;;3.10;2.47;;;19.80;99.90;;;;;;4992323;28;20201;-77
2021/08/05 02:12:34;;;;;;;8.13;2.30;;;19.70;99.90;;;;;;4992229;28;20201;-76
2021/08/05 02:15:04;;;;;;;2.50;2.30;;;19.70;99.90;;;;;;4992460;28;20186;-79
2021/08/05 02:17:35;;;;;;;2.50;2.30;;;19.70;99.90;;;;;;4992510;28;20252;-78
2021/08/05 02:20:04;;;;;;;3.20;2.30;;;19.70;99.90;;;;;;4992793;28;20591;-77
2021/08/05 02:22:31;;;;;;;2.30;2.20;;;19.70;99.90;;;;;;4992806;28;20534;-78
2021/08/05 02:24:58;;;;;;;2.63;2.42;;;19.60;99.90;;;;;;4992610;28;20201;-77
2021/08/05 02:27:26;;;;;;;4.03;2.65;;;19.60;99.90;;;;;;4991050;28;20221;-78
2021/08/05 02:29:53;;;;;;;3.13;2.88;;;19.60;99.90;;;;;;4991732;28;20193;-77
2021/08/05 02:32:20;;;;;;;2.40;2.20;;;19.60;99.90;;;;;;4990292;28;20565;-77
2021/08/05 02:34:49;;;;;;;3.00;2.72;;;19.60;99.90;;;;;;4993368;28;20651;-77
2021/08/05 02:37:16;;;;;;;2.50;2.30;;;19.60;99.90;;;;;;4996222;28;20213;-78
2021/08/05 02:39:43;;;;;;;2.17;1.95;;;19.60;99.90;;;;;;4996205;28;20588;-77
2021/08/05 02:42:10;;;;;;;2.50;2.30;;;19.50;99.90;;;;;;4994844;28;20193;-78
2021/08/05 02:44:38;;;;;;;2.28;2.05;;;19.50;99.90;;;;;;4995421;28;20585;-77
2021/08/05 02:47:06;;;;;;;2.17;1.95;;;19.50;99.90;;;;;;4995874;28;20213;-78
2021/08/05 02:49:34;;;;;;;2.83;2.63;;;19.50;99.90;;;;;;4995096;28;20207;-77
2021/08/05 02:52:02;;;;;;;3.30;2.70;;;19.50;99.90;;;;;;4995084;28;20198;-78
2021/08/05 02:54:29;;;;;;;2.20;2.00;;;19.50;99.90;;;;;;4961094;28;1035955;-78
2021/08/05 02:56:57;;;;;;;3.70;2.45;;;19.50;99.90;;;;;;4996591;28;20194;-77
2021/08/05 02:59:26;;;;;;;2.35;2.00;;;19.50;99.90;;;;;;4996443;28;20209;-78
2021/08/05 03:01:53;;;;;;;3.38;2.47;;;19.50;99.90;;;;;;4996714;28;20294;-77
2021/08/05 03:04:19;;;;;;;2.03;1.90;;;19.50;99.90;;;;;;4996833;28;20228;-77
2021/08/05 03:06:47;;;;;;;2.72;1.98;;;19.40;99.90;;;;;;4996871;28;20206;-77
2021/08/05 03:09:15;;;;;;;3.17;2.30;;;19.40;99.90;;;;;;4996833;28;20205;-77
2021/08/05 03:11:42;;;;;;;3.25;2.80;;;19.40;99.90;;;;;;4995772;28;20630;-77
2021/08/05 03:14:08;;;;;;;2.10;1.90;;;19.40;99.90;;;;;;4995793;28;20230;-77
2021/08/05 03:16:35;;;;;;;2.33;2.13;;;19.40;99.90;;;;;;4996594;28;20688;-77
2021/08/05 03:19:01;;;;;;;2.30;1.88;;;19.40;99.90;;;;;;4996356;28;20244;-78
2021/08/05 03:21:28;;;;;;;3.22;2.17;;;19.40;99.90;;;;;;4996666;28;20216;-78
2021/08/05 03:23:55;;;;;;;2.25;2.00;;;19.40;99.90;;;;;;4995919;28;20256;-77
2021/08/05 03:26:23;;;;;;;2.70;1.92;;;19.40;99.90;;;;;;4995897;28;20220;-78
2021/08/05 03:28:49;;;;;;;2.55;2.17;;;19.40;99.90;;;;;;4995479;28;20525;-78
2021/08/05 03:31:16;;;;;;;2.53;2.05;;;19.30;99.90;;;;;;4995792;28;20280;-76
2021/08/05 03:33:43;;;;;;;2.95;2.08;;;19.30;99.90;;;;;;4996458;28;20505;-79
2021/08/05 03:36:09;;;;;;;2.40;1.95;;;19.40;99.90;;;;;;4996243;28;20197;-78
2021/08/05 03:38:36;;;;;;;2.40;1.80;;;19.40;99.90;;;;;;4996148;28;20237;-78
2021/08/05 03:41:04;;;;;;;1.85;1.75;;;19.30;99.90;;;;;;4995628;28;20193;-78
2021/08/05 03:43:32;;;;;;;3.88;1.63;;;19.30;99.90;;;;;;4995518;28;21233;-77
2021/08/05 03:45:59;;;;;;;1.75;1.65;;;19.30;99.90;;;;;;4995536;28;20248;-77
2021/08/05 03:48:26;;;;;;;2.20;2.00;;;19.30;99.90;;;;;;4995623;28;20213;-77
2021/08/05 03:50:53;;;;;;;2.05;1.85;;;19.30;99.90;;;;;;4994170;28;20692;-77
2021/08/05 03:53:20;;;;;;;2.35;2.15;;;19.30;99.90;;;;;;4995678;28;20225;-78
2021/08/05 03:55:46;;;;;;;2.20;2.00;;;19.30;99.90;;;;;;4996035;28;20189;-77
2021/08/05 03:58:13;;;;;;;2.10;1.90;;;19.30;99.90;;;;;;4994568;28;20208;-78
2021/08/05 04:00:41;;;;;;;2.00;1.80;;;19.30;99.90;;;;;;4995606;28;20198;-77
2021/08/05 04:03:08;;;;;;;2.05;1.92;;;19.20;99.90;;;;;;4996158;28;20205;-77
2021/08/05 04:05:34;;;;;;;2.38;2.15;;;19.20;99.90;;;;;;4995132;28;20696;-78
2021/08/05 04:08:01;;;;;;;2.10;1.92;;;19.30;99.90;;;;;;4995867;28;20221;-77
2021/08/05 04:10:28;;;;;;;2.22;2.10;;;19.20;99.90;;;;;;4995656;28;20553;-77
2021/08/05 04:12:54;;;;;;;1.80;1.70;;;19.20;99.90;;;;;;4995418;28;20197;-77
2021/08/05 04:15:21;;;;;;;2.33;2.13;;;19.20;99.90;;;;;;4995521;28;20454;-76
2021/08/05 04:17:49;;;;;;;1.95;1.83;;;19.20;99.90;;;;;;4994691;28;20405;-77
2021/08/05 04:20:17;;;;;;;2.25;2.05;;;19.20;99.90;;;;;;4994610;28;20193;-77
2021/08/05 04:22:44;;;;;;;2.10;1.90;;;19.10;99.90;;;;;;4995368;28;20280;-77
2021/08/05 04:25:11;;;;;;;2.30;1.92;;;19.20;99.90;;;;;;4995233;28;20198;-77
2021/08/05 04:27:39;;;;;;;2.65;2.20;;;19.20;99.90;;;;;;4995011;28;20222;-76
2021/08/05 04:30:07;;;;;;;2.22;2.13;;;19.10;99.90;;;;;;4995508;28;20225;-77
2021/08/05 04:32:33;;;;;;;2.47;2.28;;;19.10;99.90;;;;;;4994962;28;20201;-77
2021/08/05 04:35:01;;;;;;;3.45;1.90;;;19.20;99.90;;;;;;4995665;28;20197;-77
2021/08/05 04:37:28;;;;;;;2.70;2.50;;;19.20;99.90;;;;;;4994732;28;20205;-77
2021/08/05 04:39:55;;;;;;;2.55;2.10;;;19.20;99.90;;;;;;4994207;28;20217;-78
2021/08/05 04:42:21;;;;;;;2.13;1.95;;;19.10;99.90;;;;;;4994719;28;20194;-77
2021/08/05 04:44:48;;;;;;;2.20;2.00;;;19.10;99.90;;;;;;4994696;28;20202;-77
2021/08/05 04:47:15;;;;;;;4.15;2.42;;;19.20;99.90;;;;;;4994883;28;20558;-78
2021/08/05 04:49:41;;;;;;;2.67;2.47;;;19.10;99.90;;;;;;4993943;28;20276;-77
2021/08/05 04:52:09;;;;;;;7.05;2.17;;;19.10;99.90;;;;;;4994925;28;20209;-78
2021/08/05 04:54:36;;;;;;;2.00;1.75;;;19.10;99.90;;;;;;4994065;28;20225;-80
2021/08/05 04:57:03;;;;;;;4.07;1.98;;;19.10;99.90;;;;;;4993742;28;20220;-78
2021/08/05 04:59:30;;;;;;;2.60;2.10;;;19.10;99.90;;;;;;4994432;28;20194;-79
2021/08/05 05:01:57;;;;;;;2.67;2.47;;;19.10;99.90;;;;;;4994964;28;20197;-79
2021/08/05 05:04:23;;;;;;;2.97;2.78;;;19.10;99.90;;;;;;4994559;28;20279;-77
2021/08/05 05:06:50;;;;;;;6.00;2.20;;;19.10;99.90;;;;;;4994318;28;20213;-77
2021/08/05 05:09:18;;;;;;;3.47;2.40;;;19.10;99.90;;;;;;4984561;28;20216;-77
2021/08/05 05:11:44;;;;;;;2.35;2.15;;;19.10;99.90;;;;;;4993338;28;20193;-77
2021/08/05 05:14:11;;;;;;;2.00;1.80;;;19.10;99.90;;;;;;4994417;28;20267;-80
2021/08/05 05:16:38;;;;;;;2.17;2.08;;;19.10;99.90;;;;;;4994313;28;20226;-78
2021/08/05 05:19:05;;;;;;;2.00;1.80;;;19.10;99.90;;;;;;4994371;28;20244;-78
2021/08/05 05:21:31;;;;;;;2.88;2.10;;;19.10;99.90;;;;;;4994567;28;20197;-78
2021/08/05 05:23:58;;;;;;;2.90;2.40;;;19.10;99.90;;;;;;4994076;28;20301;-78
2021/08/05 05:26:26;;;;;;;2.40;2.20;;;19.10;99.90;;;;;;4993463;28;20217;-78
2021/08/05 05:28:52;;;;;;;1.83;1.70;;;19.00;99.90;;;;;;4994440;28;20511;-77
2021/08/05 05:31:19;;;;;;;2.63;2.20;;;19.10;99.90;;;;;;4994091;28;20525;-79
2021/08/05 05:33:46;;;;;;;2.38;2.00;;;19.10;99.90;;;;;;4993784;28;20225;-77
2021/08/05 05:36:13;;;;;;;2.15;1.95;;;19.10;99.90;;;;;;4990269;28;20194;-77
2021/08/05 05:38:39;;;;;;;2.53;2.28;;;19.10;99.90;;;;;;4993524;28;20194;-77
2021/08/05 05:41:07;;;;;;;3.35;2.65;;;19.10;99.90;;;;;;4992251;28;20676;-77
2021/08/05 05:43:35;;;;;;;9.38;4.25;;;19.10;99.90;;;;;;4993737;28;20209;-78
2021/08/05 05:46:02;;;;;;;4.90;3.30;;;19.10;99.90;;;;;;4992002;28;20202;-78
2021/08/05 05:48:28;;;;;;;4.70;3.10;;;19.10;99.90;;;;;;4994000;28;20375;-77
2021/08/05 05:50:55;;;;;;;5.07;4.68;;;19.10;99.90;;;;;;4993342;28;20193;-77
2021/08/05 05:53:23;;;;;;;3.58;3.28;;;19.10;99.90;;;;;;4993398;28;20225;-78
2021/08/05 05:55:52;;;;;;;5.13;2.45;;;19.10;99.90;;;;;;4992396;28;20210;-77
2021/08/05 05:58:19;;;;;;;3.45;2.30;;;19.20;99.90;;;;;;4993775;28;20285;-78
2021/08/05 06:00:47;;;;;;;3.03;2.72;;;19.30;99.90;;;;;;4993008;28;20201;-77
2021/08/05 06:03:13;;;;;;;2.92;2.72;;;19.40;99.90;;;;;;4988919;28;20198;-78
2021/08/05 06:05:40;;;;;;;2.90;2.70;;;19.50;99.90;;;;;;4993348;28;20208;-78
2021/08/05 06:08:07;;;;;;;3.05;2.83;;;19.50;99.90;;;;;;4994204;28;20210;-77
2021/08/05 06:10:34;;;;;;;2.63;2.42;;;19.50;99.90;;;;;;4993639;28;20657;-77
2021/08/05 06:13:00;;;;;;;2.60;2.40;;;19.60;99.90;;;;;;4993273;28;20197;-77
2021/08/05 06:15:27;;;;;;;3.38;3.00;;;19.70;99.90;;;;;;4993984;28;20439;-77
2021/08/05 06:17:55;;;;;;;3.08;2.78;;;19.80;99.90;;;;;;4993552;28;20197;-78
2021/08/05 06:20:22;;;;;;;3.03;2.83;;;19.80;99.90;;;;;;4993132;28;20243;-77
2021/08/05 06:22:49;;;;;;;2.80;2.50;;;19.90;99.90;;;;;;4993323;28;20201;-77
2021/08/05 06:25:16;;;;;;;3.55;3.25;;;19.90;99.90;;;;;;4993507;28;20660;-77
2021/08/05 06:27:43;;;;;;;4.65;3.45;;;20.00;99.90;;;;;;4993597;28;20252;-77
2021/08/05 06:30:12;;;;;;;3.88;3.58;;;20.00;99.90;;;;;;4993563;28;20545;-78
2021/08/05 06:32:39;;;;;;;2.75;2.55;;;20.00;99.90;;;;;;4993159;28;20293;-78
2021/08/05 06:35:08;;;;;;;3.40;3.05;;;20.00;99.90;;;;;;4993346;28;20193;-78
2021/08/05 06:37:36;;;;;;;3.78;3.10;;;19.90;99.90;;;;;;4992653;28;20202;-78
2021/08/05 06:40:05;;;;;;;4.10;3.42;;;19.90;99.90;;;;;;4993641;28;20205;-77
2021/08/05 06:42:32;;;;;;;3.40;3.10;;;19.90;99.90;;;;;;4993328;28;20633;-76
2021/08/05 06:44:58;;;;;;;3.72;3.38;;;20.00;99.90;;;;;;4992836;28;20280;-76
2021/08/05 06:47:25;;;;;;;3.03;2.80;;;20.00;99.90;;;;;;4993481;28;20197;-77
2021/08/05 06:49:52;;;;;;;3.30;2.63;;;20.00;99.90;;;;;;4993432;28;20213;-77
2021/08/05 06:52:20;;;;;;;3.05;2.55;;;20.00;99.90;;;;;;4992587;28;20275;-77
2021/08/05 06:54:46;;;;;;;3.65;3.35;;;20.10;99.90;;;;;;4992288;28;20233;-77
2021/08/05 06:57:13;;;;;;;3.03;2.83;;;20.10;99.90;;;;;;4993299;28;20255;-77
2021/08/05 06:59:40;;;;;;;3.28;2.97;;;20.20;99.90;;;;;;4993155;28;20194;-78
2021/08/05 07:02:06;;;;;;;3.58;2.85;;;20.20;99.90;;;;;;4992563;28;20182;-78
2021/08/05 07:04:33;;;;;;;3.55;3.10;;;20.30;99.90;;;;;;4993545;28;20526;-78
2021/08/05 07:07:00;;;;;;;3.30;3.00;;;20.50;99.90;;;;;;4992748;28;20205;-77
2021/08/05 07:09:28;;;;;;;4.18;2.90;;;20.70;99.90;;;;;;4993446;28;20275;-78
2021/08/05 07:11:54;;;;;;;3.33;3.03;;;20.90;99.90;;;;;;4985622;28;20257;-78
2021/08/05 07:14:21;;;;;;;3.80;3.15;;;21.10;99.90;;;;;;4993112;28;20205;-78
2021/08/05 07:16:48;;;;;;;5.82;3.22;;;21.20;99.90;;;;;;4989546;28;20637;-77
2021/08/05 07:19:15;;;;;;;3.92;3.17;;;21.20;99.90;;;;;;4989954;28;20197;-77
2021/08/05 07:21:42;;;;;;;3.40;3.10;;;21.20;99.90;;;;;;4993256;28;20210;-77
2021/08/05 07:24:12;;;;;;;3.03;2.72;;;21.10;99.90;;;;;;4996268;28;20205;-77
2021/08/05 07:26:40;;;;;;;6.47;2.53;;;21.10;99.90;;;;;;4992839;28;20687;-77
2021/08/05 07:29:06;;;;;;;3.05;2.75;;;21.10;99.90;;;;;;4996474;28;20268;-77
2021/08/05 07:31:33;;;;;;;3.75;2.80;;;21.20;99.90;;;;;;4995987;28;20212;-77
2021/08/05 07:34:00;;;;;;;3.45;3.20;;;21.20;99.90;;;;;;4996149;28;20209;-76
2021/08/05 07:36:27;;;;;;;3.15;2.78;;;21.10;99.90;;;;;;4996391;28;20652;-76
2021/08/05 07:38:54;;;;;;;4.00;3.13;;;21.00;99.90;;;;;;4996246;28;20197;-76
2021/08/05 07:41:21;;;;;;;3.67;2.95;;;20.90;99.90;;;;;;4995945;28;20204;-76
2021/08/05 07:43:49;;;;;;;7.28;3.83;;;20.80;99.90;;;;;;4996307;28;20202;-76
2021/08/05 07:46:16;;;;;;;6.70;3.35;;;20.70;99.90;;;;;;4995274;28;20190;-76
2021/08/05 07:48:42;;;;;;;4.50;3.30;;;20.70;99.90;;;;;;4995962;28;20275;-77
2021/08/05 07:51:09;;;;;;;3.50;3.20;;;20.70;99.90;;;;;;4996121;28;20213;-76
2021/08/05 07:53:36;;;;;;;2.97;2.60;;;20.60;99.90;;;;;;4995461;28;20280;-77
2021/08/05 07:56:02;;;;;;;6.10;2.90;;;20.70;99.90;;;;;;4995151;28;20260;-77
2021/08/05 07:58:29;;;;;;;3.70;2.85;;;20.70;99.90;;;;;;4995884;28;20592;-76
2021/08/05 08:00:57;;;;;;;4.53;3.95;;;20.70;99.90;;;;;;4995817;28;20268;-77
2021/08/05 08:03:24;;;;;;;4.63;3.30;;;20.70;99.90;;;;;;4996281;28;20537;-76
2021/08/05 08:05:50;;;;;;;3.63;3.17;;;20.70;99.90;;;;;;4995776;28;20197;-78
2021/08/05 08:08:17;;;;;;;4.25;3.92;;;20.70;99.90;;;;;;4995721;28;20209;-78
2021/08/05 08:10:44;;;;;;;5.75;3.58;;;20.70;99.90;;;;;;4988019;28;20213;-78
2021/08/05 08:13:11;;;;;;;4.03;3.72;;;20.70;99.90;;;;;;4995522;28;20260;-76
2021/08/05 08:15:38;;;;;;;3.20;3.00;;;20.80;99.90;;;;;;4995355;28;20197;-78
2021/08/05 08:18:06;;;;;;;4.07;3.17;;;20.90;99.90;;;;;;4995110;28;20256;-76
2021/08/05 08:20:33;;;;;;;6.85;3.50;;;20.90;99.90;;;;;;4994938;28;20621;-76
2021/08/05 08:23:00;;;;;;;4.97;4.40;;;21.00;99.90;;;;;;4995279;28;20205;-76
2021/08/05 08:25:27;;;;;;;4.13;3.72;;;21.20;99.90;;;;;;4995134;28;20633;-77
2021/08/05 08:27:53;;;;;;;2.85;2.65;;;21.50;99.90;;;;;;4995317;28;20603;-77
2021/08/05 08:30:20;;;;;;;4.07;2.67;;;21.70;99.90;;;;;;4995396;28;20224;-76
2021/08/05 08:32:47;;;;;;;4.10;2.92;;;21.90;99.90;;;;;;4993072;28;20202;-76
2021/08/05 08:35:15;;;;;;;3.80;2.97;;;22.20;99.90;;;;;;4995048;28;20633;-77
2021/08/05 08:37:42;;;;;;;4.50;3.60;;;22.40;99.90;;;;;;4995217;28;20453;-77
2021/08/05 08:40:10;;;;;;;3.30;3.00;;;22.50;99.90;;;;;;4995574;28;20198;-77
2021/08/05 08:42:39;;;;;;;3.30;2.97;;;22.60;99.90;;;;;;4995003;28;20456;-77
2021/08/05 08:45:07;;;;;;;3.03;2.57;;;22.80;99.90;;;;;;4995218;28;20499;-77
2021/08/05 08:47:34;;;;;;;3.22;3.00;;;22.90;99.90;;;;;;4994224;28;20449;-79
2021/08/05 08:50:01;;;;;;;3.13;2.83;;;23.00;99.90;;;;;;4995673;28;20530;-79
2021/08/05 08:52:32;;;;;;;3.43;3.13;;;23.00;99.90;;;;;;4995612;28;20460;-81
2021/08/05 08:54:59;;;;;;;4.23;3.87;;;23.10;99.90;;;;;;4992931;28;20491;-79
2021/08/05 08:57:30;;;;;;;4.20;3.03;;;23.10;99.90;;;;;;4994793;28;20460;-79
2021/08/05 08:59:58;;;;;;;3.40;3.10;;;23.20;99.90;;;;;;4994289;28;20896;-77
2021/08/05 09:02:25;;;;;;;4.60;4.20;;;23.20;99.90;;;;;;4994318;28;20437;-78
2021/08/05 09:04:52;;;;;;;2.87;2.60;;;23.30;99.90;;;;;;4993886;28;20907;-78
2021/08/05 09:07:19;;;;;;;4.17;3.87;;;23.30;99.90;;;;;;4992753;28;20467;-79
2021/08/05 09:09:47;;;;;;;4.50;3.23;;;23.30;99.90;;;;;;4993901;28;20479;-77
2021/08/05 09:12:15;;;;;;;5.00;3.00;;;23.30;99.90;;;;;;4992033;28;20448;-77
2021/08/05 09:14:44;;;;;;;3.20;2.50;;;23.40;99.90;;;;;;4993738;28;20771;-77
2021/08/05 09:17:17;;;;;;;3.00;2.80;;;23.40;99.90;;;;;;4994117;28;20456;-78
2021/08/05 09:19:43;;;;;;;2.83;2.63;;;23.40;99.90;;;;;;4994383;28;20520;-82
2021/08/05 09:22:10;;;;;;;3.13;2.93;;;23.50;99.90;;;;;;4994250;28;20463;-78
2021/08/05 09:24:37;;;;;;;4.43;3.40;;;23.50;99.90;;;;;;4992548;28;20460;-78
2021/08/05 09:27:06;;;;;;;3.43;3.13;;;23.60;99.90;;;;;;4986796;28;20975;-77
2021/08/05 09:29:44;;;;;;;4.07;2.17;;;23.60;99.90;;;;;;4987482;28;20503;-76
2021/08/05 09:32:11;;;;;;;3.00;2.73;;;23.60;99.90;;;;;;4992990;28;20451;-77
2021/08/05 09:34:40;;;;;;;4.87;2.60;;;23.60;99.90;;;;;;4994443;28;20769;-77
2021/08/05 09:37:10;;;;;;;3.87;3.53;;;23.60;99.90;;;;;;4993936;28;20931;-77
2021/08/05 09:39:39;;;;;;;3.00;2.70;;;23.70;99.90;;;;;;4987785;28;20438;-77
2021/08/05 09:42:09;;;;;;;3.47;3.17;;;23.70;99.90;;;;;;4989296;28;20448;-77
2021/08/05 09:44:44;;;;;;;3.97;3.20;;;23.70;99.90;;;;;;4990109;28;20453;-77
2021/08/05 09:47:13;;;;;;;3.23;2.93;;;23.80;99.90;;;;;;4993259;28;20507;-79
2021/08/05 09:49:41;;;;;;;3.50;3.20;;;23.80;99.90;;;;;;4991562;28;20480;-78
2021/08/05 09:52:10;;;;;;;2.83;2.57;;;23.80;99.90;;;;;;4991795;28;20451;-77
2021/08/05 09:54:41;;;;;;;3.33;3.03;;;23.80;99.90;;;;;;4993438;28;20488;-78
2021/08/05 09:57:12;;;;;;;2.80;2.60;;;23.80;99.90;;;;;;4992323;28;20888;-79
2021/08/05 09:59:53;;;;;;;3.30;3.10;;;23.80;99.90;;;;;;4993901;28;20546;-79
2021/08/05 10:02:20;;;;;;;3.23;3.00;;;23.80;99.90;;;;;;4992747;28;20506;-78
2021/08/05 10:04:48;;;;;;;3.13;2.40;;;23.80;99.90;;;;;;4991965;28;20917;-79
2021/08/05 10:07:16;;;;;;;2.70;2.50;;;23.80;99.90;;;;;;4993394;28;20986;-78
2021/08/05 10:09:44;;;;;;;2.67;2.47;;;23.80;99.90;;;;;;4993212;28;20477;-78
2021/08/05 10:12:17;;;;;;;3.10;2.90;;;23.80;99.90;;;;;;4994107;28;20480;-79
2021/08/05 10:14:45;;;;;;;3.93;3.53;;;23.80;99.90;;;;;;4992310;28;20515;-79
2021/08/05 10:17:14;;;;;;;3.73;2.90;;;23.80;99.90;;;;;;4993251;28;20511;-78
2021/08/05 10:19:42;;;;;;;3.03;2.73;;;23.80;99.90;;;;;;4993782;28;20444;-79
2021/08/05 10:22:11;;;;;;;2.90;2.60;;;23.80;99.90;;;;;;4993487;28;20791;-78
2021/08/05 10:24:40;;;;;;;2.50;2.30;;;23.80;99.90;;;;;;4991704;28;20468;-78
2021/08/05 10:27:09;;;;;;;4.03;3.00;;;23.90;99.90;;;;;;4990026;28;20448;-79
2021/08/05 10:29:37;;;;;;;2.87;2.67;;;23.80;99.90;;;;;;4992642;28;20538;-78
2021/08/05 10:32:06;;;;;;;3.07;2.70;;;23.80;99.90;;;;;;4991374;28;20488;-79
2021/08/05 10:34:33;;;;;;;3.33;2.63;;;23.80;99.90;;;;;;4992924;28;20451;-78
2021/08/05 10:37:01;;;;;;;3.37;3.07;;;23.80;99.90;;;;;;4993040;28;20460;-78
2021/08/05 10:39:28;;;;;;;2.97;2.70;;;23.80;99.90;;;;;;4994043;28;20762;-78
2021/08/05 10:41:55;;;;;;;2.97;2.77;;;23.80;99.90;;;;;;4992917;28;20492;-78
2021/08/05 10:44:31;;;;;;;2.77;2.57;;;23.80;99.90;;;;;;4992811;28;20451;-78
2021/08/05 10:47:00;;;;;;;3.13;2.93;;;23.80;99.90;;;;;;4993285;28;20456;-79
2021/08/05 10:49:28;;;;;;;3.30;3.10;;;23.80;99.90;;;;;;4993144;28;20872;-80
2021/08/05 10:51:57;;;;;;;3.93;3.53;;;23.80;99.90;;;;;;4992998;28;20444;-79
2021/08/05 10:54:51;;;;;;;3.13;2.90;;;23.80;99.90;;;;;;4993065;28;20476;-79
2021/08/05 10:57:19;;;;;;;3.50;3.20;;;23.80;99.90;;;;;;4986562;28;20444;-79
2021/08/05 11:00:05;;;;;;;3.10;2.67;;;23.80;99.90;;;;;;4996713;28;20433;-79
2021/08/05 11:02:48;;;;;;;3.10;2.83;;;23.80;99.90;;;;;;4990635;28;20473;-78
2021/08/05 11:05:44;;;;;;;2.73;2.53;;;23.80;99.90;;;;;;4993156;28;20444;-79
2021/08/05 11:08:25;;;;;;;3.07;2.77;;;23.80;99.90;;;;;;4990887;28;20460;-78
2021/08/05 11:11:31;;;;;;;5.03;2.60;;;23.80;99.90;;;;;;4995628;28;21058;-77
2021/08/05 11:14:35;;;;;;;2.70;2.50;;;23.90;99.90;;;;;;4990489;28;20785;-76
2021/08/05 11:17:03;;;;;;;2.90;2.70;;;23.90;99.90;;;;;;4988727;28;20455;-77
2021/08/05 11:19:34;;;;;;;4.00;3.70;;;23.90;99.90;;;;;;4996097;28;20455;-77
2021/08/05 11:22:49;;;;;;;4.07;2.93;;;23.90;99.90;;;;;;4996365;28;20927;-77
2021/08/05 11:25:16;;;;;;;3.40;2.93;;;23.80;99.90;;;;;;4999698;28;20445;-77
2021/08/05 11:27:46;;;;;;;3.13;2.90;;;23.90;99.90;;;;;;5003075;28;20573;-77
2021/08/05 11:30:44;;;;;;;3.03;2.83;;;23.90;99.90;;;;;;4995620;28;20476;-76
2021/08/05 11:33:44;;;;;;;3.13;2.83;;;23.90;99.90;;;;;;4996734;28;20499;-76
2021/08/05 11:36:31;;;;;;;2.80;2.60;;;24.00;99.90;;;;;;4995037;28;20451;-77
2021/08/05 11:39:05;;;;;;;3.60;2.50;;;23.90;99.90;;;;;;4996320;28;20983;-76
2021/08/05 11:41:57;;;;;;;3.43;3.13;;;24.00;99.90;;;;;;4995900;28;20436;-77
2021/08/05 11:44:30;;;;;;;3.43;3.00;;;23.90;99.90;;;;;;4995543;28;20440;-76
2021/08/05 11:47:22;;;;;;;3.93;2.97;;;23.90;99.90;;;;;;4996597;28;20440;-77
2021/08/05 11:49:56;;;;;;;3.63;3.33;;;23.90;99.90;;;;;;4986240;28;20433;-76
2021/08/05 11:52:32;;;;;;;5.00;2.83;;;23.90;99.90;;;;;;4995839;28;20535;-76
2021/08/05 11:55:02;;;;;;;4.43;3.67;;;23.90;99.90;;;;;;4994946;28;20452;-76
2021/08/05 11:57:37;;;;;;;3.47;3.17;;;23.90;99.90;;;;;;4994122;28;20455;-77
2021/08/05 12:00:06;;;;;;;3.10;2.90;;;23.90;99.90;;;;;;4992008;28;20444;-82
2021/08/05 12:02:33;;;;;;;4.47;3.60;;;23.90;99.90;;;;;;4996292;28;20456;-82
2021/08/05 12:05:00;;;;;;;3.60;3.30;;;23.90;99.90;;;;;;4996472;28;20555;-79
2021/08/05 12:07:29;;;;;;;3.33;2.93;;;23.90;99.90;;;;;;4991984;28;20445;-81
2021/08/05 12:09:59;;;;;;;2.97;2.77;;;23.90;99.90;;;;;;4995926;28;20496;-80
2021/08/05 12:12:28;;;;;;;3.27;3.07;;;23.90;99.90;;;;;;4996155;28;20452;-78
2021/08/05 12:14:56;;;;;;;3.23;2.93;;;23.90;99.90;;;;;;4995978;28;20445;-77
2021/08/05 12:17:50;;;;;;;3.33;3.03;;;23.90;99.90;;;;;;4995785;28;20908;-78
2021/08/05 12:20:20;;;;;;;3.10;2.90;;;23.90;99.90;;;;;;4961069;28;20457;-78
2021/08/05 12:22:51;;;;;;;3.53;3.23;;;23.90;99.90;;;;;;4996002;28;20444;-76
2021/08/05 12:25:31;;;;;;;3.47;3.20;;;23.80;99.90;;;;;;4991582;28;20452;-75
2021/08/05 12:28:00;;;;;;;3.73;3.43;;;23.90;99.90;;;;;;4995683;28;20528;-75
2021/08/05 12:30:45;;;;;;;4.97;4.47;;;23.80;99.90;;;;;;4996184;28;20480;-75
2021/08/05 12:33:19;;;;;;;3.20;3.00;;;23.80;99.90;;;;;;4994945;28;20480;-77
2021/08/05 12:36:07;;;;;;;3.17;2.97;;;23.80;99.90;;;;;;4995499;28;20435;-78
2021/08/05 12:38:48;;;;;;;3.67;3.47;;;23.80;99.90;;;;;;4996529;28;20880;-83
2021/08/05 12:41:17;;;;;;;4.00;3.70;;;23.80;99.90;;;;;;4995275;28;20773;-81
2021/08/05 12:43:46;;;;;;;3.77;3.47;;;23.80;99.90;;;;;;4995653;28;20455;-76
2021/08/05 12:46:13;;;;;;;4.80;4.20;;;23.90;99.90;;;;;;4995128;28;20456;-83
2021/08/05 12:48:40;;;;;;;5.80;4.30;;;23.70;99.90;;;;;;4995639;28;20666;-75
2021/08/05 12:51:07;;;;;;;4.47;4.17;;;23.80;99.90;;;;;;4993702;28;20967;-80
2021/08/05 12:53:35;;;;;;;3.97;3.67;;;23.80;99.90;;;;;;4994909;28;20978;-77
2021/08/05 12:56:05;;;;;;;5.03;4.57;;;23.80;99.90;;;;;;4991413;28;20452;-80
2021/08/05 12:58:32;;;;;;;4.63;4.20;;;23.80;99.90;;;;;;4995317;28;20456;-80